Time,TemperatureF,DewpointF,PressureIn,WindDirection,WindDirectionDegrees,WindSpeedMPH,WindSpeedGustMPH,Humidity,HourlyPrecipIn,Conditions,Clouds,dailyrainin,SoftwareType,DateUTC
2013-06-14 00:01:00,75.9,61.5,27.08,North,0,2.3,0.0,61,0.00,RA,OVC,0.00,WeatherDisplay:10.37,2013-06-14 05:01:00,
2013-06-14 00:06:00,75.7,61.8,27.08,SW,225,3.5,0.0,62,0.00,RA,OVC,0.00,WeatherDisplay:10.37,2013-06-14 05:06:00,
2013-06-14 00:11:00,75.6,62.1,27.08,South,180,5.8,5.8,63,0.00,CLR,OVC,0.00,WeatherDisplay:10.37,2013-06-14 05:11:00,
2013-06-14 00:16:00,75.2,62.2,27.08,SE,135,3.5,3.5,64,0.00,CLR,OVC,0.00,WeatherDisplay:10.37,2013-06-14 05:16:00,
2013-06-14 00:21:00,74.7,62.5,27.08,ESE,112,3.5,3.5,66,0.00,CLR,OVC,0.00,WeatherDisplay:10.37,2013-06-14 05:21:00,
2013-06-14 00:26:00,74.5,62.8,27.08,East,90,5.8,0.0,67,0.00,CLR,OVC,0.00,WeatherDisplay:10.37,2013-06-14 05:26:00,
2013-06-14 00:31:00,74.1,62.5,27.09,South,180,3.5,3.5,67,0.00,CLR,OVC,0.00,WeatherDisplay:10.37,2013-06-14 05:31:00,
2013-06-14 00:36:00,73.9,62.7,27.09,South,180,6.9,6.9,68,0.00,CLR,OVC,0.00,WeatherDisplay:10.37,2013-06-14 05:36:00,
2013-06-14 00:41:00,73.6,62.8,27.09,SW,225,3.5,3.5,69,0.00,CLR,OVC,0.00,WeatherDisplay:10.37,2013-06-14 05:41:00,
2013-06-14 00:47:00,73.2,62.8,27.09,SSW,202,3.8,3.8,70,0.00,CLR,OVC,0.00,WeatherDisplay:10.37,2013-06-14 05:47:00,
2013-06-14 00:52:00,73.2,63.2,27.08,NE,45,1.1,0.0,71,0.00,CLR,OVC,0.00,WeatherDisplay:10.37,2013-06-14 05:52:00,
2013-06-14 00:57:00,73.0,63.1,27.08,SE,135,3.5,3.5,71,0.00,CLR,OVC,0.00,WeatherDisplay:10.37,2013-06-14 05:57:00,
2013-06-14 01:02:00,72.9,62.9,27.08,SW,225,1.1,1.1,71,0.00,CLR,OVC,0.00,WeatherDisplay:10.37,2013-06-14 06:02:00,
2013-06-14 01:07:00,72.9,62.9,27.08,SW,225,1.1,1.1,71,0.00,CLR,OVC,0.00,WeatherDisplay:10.37,2013-06-14 06:07:00,
2013-06-14 01:12:00,72.5,63.0,27.07,NW,315,0.0,0.0,72,0.00,CLR,OVC,0.00,WeatherDisplay:10.37,2013-06-14 06:12:00,
2013-06-14 01:17:00,72.3,62.8,27.07,North,0,1.1,0.0,72,0.00,CLR,OVC,0.00,WeatherDisplay:10.37,2013-06-14 06:17:00,
2013-06-14 01:22:00,72.1,62.6,27.08,NW,315,0.0,0.0,72,0.00,CLR,OVC,0.00,WeatherDisplay:10.37,2013-06-14 06:22:00,
2013-06-14 01:27:00,72.1,63.0,27.11,NW,315,1.1,0.0,73,0.00,CLR,OVC,0.00,WeatherDisplay:10.37,2013-06-14 06:27:00,
2013-06-14 01:32:00,72.1,63.0,27.14,NW,315,1.1,0.0,73,0.00,CLR,OVC,0.00,WeatherDisplay:10.37,2013-06-14 06:32:00,
2013-06-14 01:37:00,72.3,62.8,27.15,SE,135,3.5,3.5,72,0.00,CLR,OVC,0.00,WeatherDisplay:10.37,2013-06-14 06:37:00,
2013-06-14 01:42:00,72.5,63.4,27.16,West,270,3.5,3.5,73,0.02,RA,OVC,0.04,WeatherDisplay:10.37,2013-06-14 06:42:00,
2013-06-14 01:47:00,71.8,64.2,27.13,East,90,5.8,5.8,77,0.07,RA,OVC,0.07,WeatherDisplay:10.37,2013-06-14 06:47:00,
2013-06-14 01:52:00,69.3,63.9,27.14,South,180,4.6,4.6,83,0.15,RA,OVC,0.15,WeatherDisplay:10.37,2013-06-14 06:52:00,
2013-06-14 01:57:00,68.2,63.2,27.14,South,180,4.6,4.6,84,0.20,RA,OVC,0.20,WeatherDisplay:10.37,2013-06-14 06:57:00,
2013-06-14 02:02:00,67.5,63.8,27.13,SE,135,10.4,10.4,88,0.22,RA,OVC,0.22,WeatherDisplay:10.37,2013-06-14 07:02:00,
2013-06-14 02:07:00,67.1,64.4,27.09,SE,135,8.1,8.1,91,0.25,RA,OVC,0.25,WeatherDisplay:10.37,2013-06-14 07:07:00,
2013-06-14 02:18:00,66.6,-6.6,28.73,North,0,0.0,47.2,5,0.26,RA,OVC,0.26,WeatherDisplay:10.37,2013-06-14 07:18:00,
2013-06-14 02:23:00,65.3,61.7,26.99,South,180,5.8,5.8,88,0.27,RA,OVC,0.27,WeatherDisplay:10.37,2013-06-14 07:23:00,
2013-06-14 02:28:00,64.9,61.6,26.99,South,180,6.9,6.9,89,0.27,RA,OVC,0.27,WeatherDisplay:10.37,2013-06-14 07:28:00,
2013-06-14 02:33:00,65.3,61.3,27.00,SE,135,13.0,13.0,87,0.27,,OVC,0.27,WeatherDisplay:10.37,2013-06-14 07:33:00,
2013-06-14 02:38:00,65.3,61.0,26.98,East,90,8.1,8.1,86,0.27,CLR,OVC,0.27,WeatherDisplay:10.37,2013-06-14 07:38:00,
2013-06-14 02:43:00,65.1,61.2,26.98,South,180,13.8,13.8,87,0.22,CLR,OVC,0.27,WeatherDisplay:10.37,2013-06-14 07:43:00,
2013-06-14 02:49:00,65.1,61.2,26.99,South,180,17.3,17.3,87,0.20,CLR,OVC,0.27,WeatherDisplay:10.37,2013-06-14 07:49:00,
2013-06-14 02:54:00,65.1,61.2,27.00,South,180,9.2,9.2,87,0.11,CLR,OVC,0.27,WeatherDisplay:10.37,2013-06-14 07:54:00,
2013-06-14 02:59:00,65.1,61.2,27.00,SE,135,9.2,9.2,87,0.06,CLR,OVC,0.27,WeatherDisplay:10.37,2013-06-14 07:59:00,
2013-06-14 03:04:00,65.3,61.3,27.00,South,180,3.5,3.5,87,0.05,CLR,OVC,0.27,WeatherDisplay:10.37,2013-06-14 08:04:00,
2013-06-14 03:09:00,65.5,61.2,27.00,South,180,8.1,8.1,86,0.02,CLR,OVC,0.27,WeatherDisplay:10.37,2013-06-14 08:09:00,
2013-06-14 03:14:00,65.7,61.4,26.99,SE,135,3.5,3.5,86,0.01,CLR,OVC,0.27,WeatherDisplay:10.37,2013-06-14 08:14:00,
2013-06-14 03:19:00,66.0,61.0,27.00,South,180,5.8,5.8,84,0.01,CLR,OVC,0.27,WeatherDisplay:10.37,2013-06-14 08:19:00,
2013-06-14 03:24:00,66.2,60.9,27.00,South,180,5.8,5.8,83,0.00,CLR,OVC,0.27,WeatherDisplay:10.37,2013-06-14 08:24:00,
2013-06-14 03:29:00,66.4,60.7,26.99,ESE,112,4.6,4.6,82,0.00,CLR,OVC,0.27,WeatherDisplay:10.37,2013-06-14 08:29:00,
2013-06-14 03:34:00,66.6,60.9,27.00,SE,135,5.8,5.8,82,0.00,CLR,OVC,0.27,WeatherDisplay:10.37,2013-06-14 08:34:00,
2013-06-14 03:39:00,66.7,60.7,27.00,South,180,5.8,5.8,81,0.00,CLR,OVC,0.27,WeatherDisplay:10.37,2013-06-14 08:39:00,
2013-06-14 03:44:00,67.1,61.8,27.00,SE,135,8.1,8.1,83,0.00,CLR,OVC,0.27,WeatherDisplay:10.37,2013-06-14 08:44:00,
2013-06-14 03:49:00,67.8,62.8,27.00,SE,135,10.4,10.4,84,0.00,CLR,OVC,0.27,WeatherDisplay:10.37,2013-06-14 08:49:00,
2013-06-14 03:54:00,68.0,62.6,27.00,SSE,158,5.8,5.8,83,0.00,CLR,OVC,0.27,WeatherDisplay:10.37,2013-06-14 08:54:00,
2013-06-14 03:59:00,68.2,62.8,27.00,SW,225,8.1,8.1,83,0.00,CLR,OVC,0.27,WeatherDisplay:10.37,2013-06-14 08:59:00,
2013-06-14 04:04:00,68.2,62.8,27.00,South,180,8.1,8.1,83,0.00,CLR,OVC,0.27,WeatherDisplay:10.37,2013-06-14 09:04:00,
2013-06-14 04:09:00,68.4,63.0,27.00,SE,135,10.4,10.4,83,0.00,CLR,OVC,0.27,WeatherDisplay:10.37,2013-06-14 09:09:00,
2013-06-14 04:14:00,68.4,62.6,27.00,SE,135,9.2,9.2,82,0.00,CLR,OVC,0.27,WeatherDisplay:10.37,2013-06-14 09:14:00,
2013-06-14 04:19:00,68.0,62.6,26.99,SE,135,11.5,11.5,83,0.00,CLR,OVC,0.27,WeatherDisplay:10.37,2013-06-14 09:19:00,
2013-06-14 04:24:00,67.6,62.6,26.99,South,180,9.2,9.2,84,0.00,CLR,OVC,0.27,WeatherDisplay:10.37,2013-06-14 09:24:00,
2013-06-14 04:29:00,67.5,62.5,26.99,SSE,158,12.7,12.7,84,0.00,CLR,OVC,0.27,WeatherDisplay:10.37,2013-06-14 09:29:00,
2013-06-14 04:34:00,67.5,62.5,26.99,SE,135,6.9,6.9,84,0.00,CLR,OVC,0.27,WeatherDisplay:10.37,2013-06-14 09:34:00,
2013-06-14 04:39:00,67.6,63.0,26.99,SW,225,11.5,11.5,85,0.00,CLR,OVC,0.27,WeatherDisplay:10.37,2013-06-14 09:39:00,
2013-06-14 04:44:00,67.6,63.0,26.98,South,180,6.9,6.9,85,0.00,CLR,OVC,0.27,WeatherDisplay:10.37,2013-06-14 09:44:00,
2013-06-14 04:49:00,67.6,63.3,26.98,SE,135,11.5,11.5,86,0.00,CLR,OVC,0.27,WeatherDisplay:10.37,2013-06-14 09:49:00,
2013-06-14 04:54:00,67.6,63.6,26.97,SW,225,11.5,11.5,87,0.00,CLR,OVC,0.27,WeatherDisplay:10.37,2013-06-14 09:54:00,
2013-06-14 04:59:00,67.8,64.1,26.96,SE,135,9.2,9.2,88,0.00,CLR,OVC,0.27,WeatherDisplay:10.37,2013-06-14 09:59:00,
2013-06-14 05:04:00,68.2,64.5,26.96,South,180,10.4,10.4,88,0.00,CLR,OVC,0.27,WeatherDisplay:10.37,2013-06-14 10:04:00,
2013-06-14 05:09:00,68.5,65.2,26.97,South,180,12.7,12.7,89,0.00,CLR,OVC,0.27,WeatherDisplay:10.37,2013-06-14 10:09:00,
2013-06-14 05:14:00,68.9,65.2,26.97,SW,225,10.4,10.4,88,0.00,CLR,OVC,0.27,WeatherDisplay:10.37,2013-06-14 10:14:00,
2013-06-14 05:19:00,69.1,65.4,26.97,SW,225,8.1,8.1,88,0.00,CLR,OVC,0.27,WeatherDisplay:10.37,2013-06-14 10:19:00,
2013-06-14 05:24:00,70.0,65.3,26.97,South,180,12.7,12.7,85,0.00,CLR,OVC,0.27,WeatherDisplay:10.37,2013-06-14 10:24:00,
2013-06-14 05:29:00,70.2,65.1,26.97,South,180,11.5,11.5,84,0.00,CLR,OVC,0.27,WeatherDisplay:10.37,2013-06-14 10:29:00,
2013-06-14 05:34:00,70.3,65.3,26.97,SE,135,9.2,9.2,84,0.00,CLR,OVC,0.27,WeatherDisplay:10.37,2013-06-14 10:34:00,
2013-06-14 05:39:00,70.2,65.1,26.98,SE,135,9.2,9.2,84,0.00,CLR,OVC,0.27,WeatherDisplay:10.37,2013-06-14 10:39:00,
2013-06-14 05:44:00,70.2,65.1,26.99,South,180,10.4,10.4,84,0.00,CLR,OVC,0.27,WeatherDisplay:10.37,2013-06-14 10:44:00,
2013-06-14 05:49:00,70.0,64.9,26.99,SW,225,11.5,11.5,84,0.00,CLR,OVC,0.27,WeatherDisplay:10.37,2013-06-14 10:49:00,
2013-06-14 05:54:00,70.0,65.3,26.99,SSW,202,9.2,9.2,85,0.00,CLR,OVC,0.27,WeatherDisplay:10.37,2013-06-14 10:54:00,
2013-06-14 05:59:00,70.0,65.3,26.99,East,90,9.2,9.2,85,0.00,CLR,OVC,0.27,WeatherDisplay:10.37,2013-06-14 10:59:00,
2013-06-14 06:04:00,69.8,65.1,26.98,South,180,11.5,11.5,85,0.00,CLR,OVC,0.27,WeatherDisplay:10.37,2013-06-14 11:04:00,
2013-06-14 06:09:00,69.6,65.2,26.98,NE,45,8.1,8.1,86,0.00,CLR,OVC,0.27,WeatherDisplay:10.37,2013-06-14 11:09:00,
2013-06-14 06:14:00,69.3,65.2,26.98,SSW,202,11.5,11.5,87,0.00,CLR,OVC,0.27,WeatherDisplay:10.37,2013-06-14 11:14:00,
2013-06-14 06:19:00,69.3,65.6,26.98,SSE,158,10.4,10.4,88,0.00,CLR,OVC,0.27,WeatherDisplay:10.37,2013-06-14 11:19:00,
2013-06-14 06:24:00,69.1,65.4,26.98,South,180,8.1,8.1,88,0.00,CLR,OVC,0.27,WeatherDisplay:10.37,2013-06-14 11:24:00,
2013-06-14 06:29:00,69.1,65.7,26.98,South,180,10.4,10.4,89,0.01,RA,OVC,0.28,WeatherDisplay:10.37,2013-06-14 11:29:00,
2013-06-14 06:34:00,68.9,65.5,26.98,South,180,5.8,6.0,89,0.01,RA,OVC,0.28,WeatherDisplay:10.37,2013-06-14 11:34:00,
2013-06-14 06:39:00,68.9,65.8,26.98,SE,135,8.3,8.3,90,0.01,,OVC,0.28,WeatherDisplay:10.37,2013-06-14 11:39:00,
2013-06-14 06:44:00,68.9,65.8,26.98,SE,135,9.2,9.2,90,0.01,CLR,OVC,0.28,WeatherDisplay:10.37,2013-06-14 11:44:00,
2013-06-14 06:49:00,68.9,65.8,26.98,SE,135,8.1,8.1,90,0.01,CLR,OVC,0.28,WeatherDisplay:10.37,2013-06-14 11:49:00,
2013-06-14 06:54:00,68.9,65.8,26.98,South,180,8.1,8.1,90,0.01,CLR,OVC,0.28,WeatherDisplay:10.37,2013-06-14 11:54:00,
2013-06-14 06:59:00,68.9,66.2,26.97,South,180,8.1,8.1,91,0.01,CLR,OVC,0.28,WeatherDisplay:10.37,2013-06-14 11:59:00,
2013-06-14 07:04:00,68.7,66.0,26.98,South,180,10.4,10.4,91,0.01,CLR,OVC,0.28,WeatherDisplay:10.37,2013-06-14 12:04:00,
2013-06-14 07:09:00,69.1,66.3,26.97,South,180,8.1,8.1,91,0.01,CLR,OVC,0.28,WeatherDisplay:10.37,2013-06-14 12:09:00,
2013-06-14 07:14:00,69.1,66.3,26.97,SW,225,12.7,12.7,91,0.01,CLR,OVC,0.28,WeatherDisplay:10.37,2013-06-14 12:14:00,
2013-06-14 07:19:00,69.1,66.3,26.97,SE,135,8.1,8.1,91,0.01,CLR,OVC,0.28,WeatherDisplay:10.37,2013-06-14 12:19:00,
2013-06-14 07:24:00,69.3,66.5,26.97,South,180,10.4,10.4,91,0.01,CLR,OVC,0.28,WeatherDisplay:10.37,2013-06-14 12:24:00,
2013-06-14 07:29:00,69.4,66.7,26.97,South,180,8.1,8.1,91,0.00,CLR,OVC,0.28,WeatherDisplay:10.37,2013-06-14 12:29:00,
2013-06-14 07:34:00,69.6,66.9,26.97,South,180,10.4,10.4,91,0.00,CLR,OVC,0.28,WeatherDisplay:10.37,2013-06-14 12:34:00,
2013-06-14 07:39:00,69.8,66.7,26.97,South,180,9.2,9.2,90,0.00,CLR,OVC,0.28,WeatherDisplay:10.37,2013-06-14 12:39:00,
2013-06-14 07:44:00,70.0,66.9,26.97,SW,225,11.5,11.5,90,0.00,CLR,OVC,0.28,WeatherDisplay:10.37,2013-06-14 12:44:00,
2013-06-14 07:50:00,70.2,66.8,26.97,North,0,8.1,8.1,89,0.00,CLR,OVC,0.28,WeatherDisplay:10.37,2013-06-14 12:50:00,
2013-06-14 07:55:00,70.5,67.1,26.97,South,180,8.1,8.1,89,0.00,CLR,OVC,0.28,WeatherDisplay:10.37,2013-06-14 12:55:00,
2013-06-14 08:00:00,70.3,66.6,26.97,SE,135,10.4,10.4,88,0.00,CLR,OVC,0.28,WeatherDisplay:10.37,2013-06-14 13:00:00,
2013-06-14 08:05:00,70.2,66.4,26.96,South,180,11.5,11.5,88,0.00,CLR,OVC,0.28,WeatherDisplay:10.37,2013-06-14 13:05:00,
2013-06-14 08:10:00,70.2,66.8,26.96,South,180,11.5,11.5,89,0.00,CLR,OVC,0.28,WeatherDisplay:10.37,2013-06-14 13:10:00,
2013-06-14 08:15:00,70.2,66.8,26.96,South,180,5.8,5.8,89,0.00,CLR,OVC,0.28,WeatherDisplay:10.37,2013-06-14 13:15:00,
2013-06-14 08:20:00,70.3,66.9,26.97,East,90,12.7,12.7,89,0.00,CLR,OVC,0.28,WeatherDisplay:10.37,2013-06-14 13:20:00,
2013-06-14 08:25:00,70.5,66.8,26.96,South,180,5.8,5.8,88,0.00,CLR,OVC,0.28,WeatherDisplay:10.37,2013-06-14 13:25:00,
2013-06-14 08:30:00,71.2,67.5,26.97,South,180,3.5,3.5,88,0.00,CLR,OVC,0.28,WeatherDisplay:10.37,2013-06-14 13:30:00,
2013-06-14 08:35:00,72.7,67.9,26.98,South,180,6.9,6.9,85,0.00,CLR,OVC,0.28,WeatherDisplay:10.37,2013-06-14 13:35:00,
2013-06-14 08:40:00,73.9,69.5,26.98,WSW,248,4.6,4.6,86,0.00,CLR,OVC,0.28,WeatherDisplay:10.37,2013-06-14 13:40:00,
2013-06-14 08:45:00,75.9,69.7,26.99,SW,225,5.8,5.8,81,0.00,CLR,OVC,0.28,WeatherDisplay:10.37,2013-06-14 13:45:00,
2013-06-14 08:50:00,76.5,69.1,26.98,West,270,5.8,5.8,78,0.00,CLR,OVC,0.28,WeatherDisplay:10.37,2013-06-14 13:50:00,
2013-06-14 08:55:00,77.0,68.9,26.98,South,180,5.8,5.8,76,0.00,CLR,OVC,0.28,WeatherDisplay:10.37,2013-06-14 13:55:00,
2013-06-14 09:00:00,77.4,69.2,26.97,South,180,5.8,5.8,76,0.00,CLR,OVC,0.28,WeatherDisplay:10.37,2013-06-14 14:00:00,
2013-06-14 09:05:00,77.5,69.4,26.98,South,180,3.5,3.5,76,0.00,CLR,OVC,0.28,WeatherDisplay:10.37,2013-06-14 14:05:00,
2013-06-14 09:10:00,78.6,69.6,26.98,SE,135,5.8,5.8,74,0.00,CLR,OVC,0.28,WeatherDisplay:10.37,2013-06-14 14:10:00,
2013-06-14 09:15:00,79.2,70.2,26.98,SE,135,5.8,5.8,74,0.00,CLR,OVC,0.28,WeatherDisplay:10.37,2013-06-14 14:15:00,
2013-06-14 09:20:00,79.7,69.9,26.98,South,180,5.8,5.8,72,0.00,CLR,OVC,0.28,WeatherDisplay:10.37,2013-06-14 14:20:00,
2013-06-14 09:25:00,80.2,70.4,26.99,SW,225,4.6,4.6,72,0.00,CLR,OVC,0.28,WeatherDisplay:10.37,2013-06-14 14:25:00,
2013-06-14 09:30:00,81.0,70.7,26.99,SE,135,3.5,3.5,71,0.00,CLR,OVC,0.28,WeatherDisplay:10.37,2013-06-14 14:30:00,
2013-06-14 09:35:00,82.0,70.9,26.99,South,180,5.8,5.8,69,0.00,CLR,OVC,0.28,WeatherDisplay:10.37,2013-06-14 14:35:00,
2013-06-14 09:40:00,82.2,70.2,26.98,South,180,8.1,8.1,67,0.00,CLR,OVC,0.28,WeatherDisplay:10.37,2013-06-14 14:40:00,
2013-06-14 09:45:00,82.2,69.7,26.98,South,180,5.8,5.8,66,0.00,CLR,OVC,0.28,WeatherDisplay:10.37,2013-06-14 14:45:00,
2013-06-14 09:50:00,82.4,69.9,26.99,South,180,5.8,5.8,66,0.00,CLR,OVC,0.28,WeatherDisplay:10.37,2013-06-14 14:50:00,
2013-06-14 09:55:00,83.1,70.1,26.98,South,180,8.1,8.1,65,0.00,CLR,OVC,0.28,WeatherDisplay:10.37,2013-06-14 14:55:00,
2013-06-14 10:00:00,83.7,70.6,26.99,SSW,202,6.9,6.9,65,0.00,CLR,OVC,0.28,WeatherDisplay:10.37,2013-06-14 15:00:00,
2013-06-14 10:05:00,84.0,71.0,26.98,South,180,5.8,5.8,65,0.00,CLR,OVC,0.28,WeatherDisplay:10.37,2013-06-14 15:05:00,
2013-06-14 10:10:00,84.2,71.2,26.98,South,180,5.8,5.8,65,0.00,CLR,OVC,0.28,WeatherDisplay:10.37,2013-06-14 15:10:00,
2013-06-14 10:15:00,84.6,71.0,26.98,SE,135,5.8,5.8,64,0.00,CLR,OVC,0.28,WeatherDisplay:10.37,2013-06-14 15:15:00,
2013-06-14 10:20:00,84.7,70.7,26.99,South,180,3.5,0.0,63,0.00,CLR,OVC,0.28,WeatherDisplay:10.37,2013-06-14 15:20:00,
2013-06-14 10:25:00,85.1,70.6,26.99,SE,135,4.6,4.6,62,0.00,CLR,OVC,0.28,WeatherDisplay:10.37,2013-06-14 15:25:00,
2013-06-14 10:30:00,84.9,70.4,26.99,South,180,4.6,4.6,62,0.00,CLR,OVC,0.28,WeatherDisplay:10.37,2013-06-14 15:30:00,
2013-06-14 10:35:00,84.9,70.9,26.98,South,180,5.8,5.8,63,0.00,CLR,OVC,0.28,WeatherDisplay:10.37,2013-06-14 15:35:00,
2013-06-14 10:40:00,85.1,70.1,26.98,SW,225,5.8,5.8,61,0.00,CLR,OVC,0.28,WeatherDisplay:10.37,2013-06-14 15:40:00,
2013-06-14 10:45:00,85.6,72.1,26.98,SE,135,5.8,5.8,64,0.00,CLR,OVC,0.28,WeatherDisplay:10.37,2013-06-14 15:45:00,
2013-06-14 10:50:00,86.2,71.6,26.97,SE,135,8.1,8.1,62,0.00,CLR,OVC,0.28,WeatherDisplay:10.37,2013-06-14 15:50:00,
2013-06-14 10:55:00,86.9,71.3,26.97,South,180,5.8,5.8,60,0.00,CLR,OVC,0.28,WeatherDisplay:10.37,2013-06-14 15:55:00,
2013-06-14 11:00:00,87.3,70.2,26.98,SW,225,8.1,0.0,57,0.00,CLR,OVC,0.28,WeatherDisplay:10.37,2013-06-14 16:00:00,
2013-06-14 11:05:00,87.3,70.2,26.97,SW,225,1.1,0.0,57,0.00,CLR,OVC,0.28,WeatherDisplay:10.37,2013-06-14 16:05:00,
2013-06-14 11:10:00,88.0,69.3,26.97,South,180,8.1,8.1,54,0.00,CLR,OVC,0.28,WeatherDisplay:10.37,2013-06-14 16:10:00,
2013-06-14 11:15:00,88.3,70.1,26.97,SW,225,3.5,3.5,55,0.00,CLR,OVC,0.28,WeatherDisplay:10.37,2013-06-14 16:15:00,
2013-06-14 11:20:00,88.9,70.1,26.97,SE,135,4.6,4.6,54,0.00,CLR,OVC,0.28,WeatherDisplay:10.37,2013-06-14 16:20:00,
2013-06-14 11:25:00,89.2,70.4,26.97,South,180,2.3,2.3,54,0.00,CLR,OVC,0.28,WeatherDisplay:10.37,2013-06-14 16:25:00,
2013-06-14 11:30:00,89.1,70.3,26.97,SSE,158,3.5,3.5,54,0.00,CLR,OVC,0.28,WeatherDisplay:10.37,2013-06-14 16:30:00,
2013-06-14 11:35:00,89.2,69.3,26.98,SW,225,1.6,0.0,52,0.00,CLR,OVC,0.28,WeatherDisplay:10.37,2013-06-14 16:35:00,
2013-06-14 11:40:00,89.4,70.0,26.98,SW,225,1.1,0.0,53,0.00,CLR,OVC,0.28,WeatherDisplay:10.37,2013-06-14 16:40:00,
2013-06-14 11:45:00,89.1,66.8,26.98,NW,315,2.3,0.0,48,0.00,CLR,OVC,0.28,WeatherDisplay:10.37,2013-06-14 16:45:00,
2013-06-14 11:50:00,89.6,67.9,26.98,North,0,2.3,2.3,49,0.00,CLR,OVC,0.28,WeatherDisplay:10.37,2013-06-14 16:50:00,
2013-06-14 11:55:00,90.1,70.1,26.98,SW,225,1.1,0.0,52,0.00,CLR,OVC,0.28,WeatherDisplay:10.37,2013-06-14 16:55:00,
2013-06-14 12:00:00,90.5,68.7,26.98,SW,225,1.1,0.0,49,0.00,CLR,OVC,0.28,WeatherDisplay:10.37,2013-06-14 17:00:00,
2013-06-14 12:05:00,90.1,67.2,26.99,NE,45,1.1,0.0,47,0.00,CLR,OVC,0.28,WeatherDisplay:10.37,2013-06-14 17:05:00,
2013-06-14 12:10:00,89.8,68.7,26.98,NW,315,0.0,0.0,50,0.00,CLR,OVC,0.28,WeatherDisplay:10.37,2013-06-14 17:10:00,
2013-06-14 12:15:00,89.1,68.0,26.98,North,0,1.1,0.0,50,0.00,CLR,OVC,0.28,WeatherDisplay:10.37,2013-06-14 17:15:00,
2013-06-14 12:20:00,89.2,69.3,26.98,SW,225,3.5,3.5,52,0.00,CLR,OVC,0.28,WeatherDisplay:10.37,2013-06-14 17:20:00,
2013-06-14 12:25:00,89.1,66.2,26.98,West,270,1.1,0.0,47,0.00,CLR,OVC,0.28,WeatherDisplay:10.37,2013-06-14 17:25:00,
2013-06-14 12:30:00,89.2,68.2,26.98,South,180,1.1,0.0,50,0.00,CLR,OVC,0.28,WeatherDisplay:10.37,2013-06-14 17:30:00,
2013-06-14 12:35:00,89.2,67.6,26.99,South,180,0.0,0.0,49,0.00,CLR,OVC,0.28,WeatherDisplay:10.37,2013-06-14 17:35:00,
2013-06-14 12:40:00,89.6,65.4,26.99,NW,315,1.1,0.0,45,0.00,CLR,OVC,0.28,WeatherDisplay:10.37,2013-06-14 17:40:00,
2013-06-14 12:45:00,90.1,66.6,26.99,NW,315,1.1,0.0,46,0.00,CLR,OVC,0.28,WeatherDisplay:10.37,2013-06-14 17:45:00,
2013-06-14 12:50:00,91.2,68.2,26.99,South,180,0.0,0.0,47,0.00,CLR,OVC,0.28,WeatherDisplay:10.37,2013-06-14 17:50:00,
2013-06-14 12:55:00,92.3,69.2,26.99,West,270,1.1,0.0,47,0.00,CLR,OVC,0.28,WeatherDisplay:10.37,2013-06-14 17:55:00,
2013-06-14 13:00:00,92.5,69.3,26.99,WSW,248,1.1,0.0,47,0.00,CLR,OVC,0.28,WeatherDisplay:10.37,2013-06-14 18:00:00,
2013-06-14 13:05:00,92.5,69.3,26.99,WSW,248,0.0,0.0,47,0.00,CLR,OVC,0.28,WeatherDisplay:10.37,2013-06-14 18:05:00,
2013-06-14 13:10:00,91.9,63.4,26.99,NW,315,8.1,8.1,39,0.00,CLR,OVC,0.28,WeatherDisplay:10.37,2013-06-14 18:10:00,
2013-06-14 13:15:00,90.3,63.4,26.99,NW,315,3.1,3.1,41,0.00,CLR,OVC,0.28,WeatherDisplay:10.37,2013-06-14 18:15:00,
2013-06-14 13:20:00,90.0,63.8,26.99,NW,315,3.5,3.5,42,0.00,CLR,OVC,0.28,WeatherDisplay:10.37,2013-06-14 18:20:00,
2013-06-14 13:25:00,89.6,62.8,26.99,North,0,3.5,3.5,41,0.00,CLR,OVC,0.28,WeatherDisplay:10.37,2013-06-14 18:25:00,
2013-06-14 13:30:00,89.2,63.1,26.99,NW,315,6.9,6.9,42,0.00,CLR,OVC,0.28,WeatherDisplay:10.37,2013-06-14 18:30:00,
2013-06-14 13:35:00,89.2,64.5,26.99,NW,315,1.1,0.0,44,0.00,CLR,OVC,0.28,WeatherDisplay:10.37,2013-06-14 18:35:00,
2013-06-14 13:40:00,89.8,62.9,26.99,NW,315,2.3,2.3,41,0.00,CLR,OVC,0.28,WeatherDisplay:10.37,2013-06-14 18:40:00,
2013-06-14 13:46:00,89.8,61.5,26.99,NW,315,5.8,5.8,39,0.00,CLR,OVC,0.28,WeatherDisplay:10.37,2013-06-14 18:46:00,
2013-06-14 13:51:00,89.8,60.8,26.99,North,0,5.8,6.0,38,0.00,CLR,OVC,0.28,WeatherDisplay:10.37,2013-06-14 18:51:00,
2013-06-14 13:56:00,89.8,62.2,26.99,WNW,292,4.6,4.6,40,0.00,CLR,OVC,0.28,WeatherDisplay:10.37,2013-06-14 18:56:00,
2013-06-14 14:01:00,89.8,60.8,26.99,NW,315,5.8,5.8,38,0.00,CLR,OVC,0.28,WeatherDisplay:10.37,2013-06-14 19:01:00,
2013-06-14 14:06:00,90.0,60.2,27.00,NW,315,5.8,5.8,37,0.00,CLR,OVC,0.28,WeatherDisplay:10.37,2013-06-14 19:06:00,
2013-06-14 14:11:00,90.1,61.1,27.00,NW,315,5.8,5.8,38,0.00,CLR,OVC,0.28,WeatherDisplay:10.37,2013-06-14 19:11:00,
2013-06-14 14:16:00,90.1,59.6,27.00,WNW,292,9.2,9.2,36,0.00,CLR,OVC,0.28,WeatherDisplay:10.37,2013-06-14 19:16:00,
2013-06-14 14:21:00,90.1,60.4,27.00,North,0,4.6,4.6,37,0.00,CLR,OVC,0.28,WeatherDisplay:10.37,2013-06-14 19:21:00,
2013-06-14 14:26:00,90.1,59.6,26.99,NW,315,8.1,8.1,36,0.00,CLR,OVC,0.28,WeatherDisplay:10.37,2013-06-14 19:26:00,
2013-06-14 14:31:00,90.1,61.1,27.00,NNW,338,5.8,5.8,38,0.00,CLR,OVC,0.28,WeatherDisplay:10.37,2013-06-14 19:31:00,
2013-06-14 14:36:00,90.3,59.7,27.00,WNW,292,8.1,8.1,36,0.00,CLR,OVC,0.28,WeatherDisplay:10.37,2013-06-14 19:36:00,
2013-06-14 14:41:00,90.5,58.3,27.00,North,0,6.9,6.9,34,0.00,CLR,OVC,0.28,WeatherDisplay:10.37,2013-06-14 19:41:00,
2013-06-14 14:46:00,90.0,57.8,27.00,NW,315,5.8,5.8,34,0.00,CLR,OVC,0.28,WeatherDisplay:10.37,2013-06-14 19:46:00,
2013-06-14 14:51:00,89.4,60.5,26.99,West,270,5.8,5.8,38,0.00,CLR,OVC,0.28,WeatherDisplay:10.37,2013-06-14 19:51:00,
2013-06-14 14:56:00,89.2,61.0,26.99,NW,315,8.1,8.1,39,0.00,CLR,OVC,0.28,WeatherDisplay:10.37,2013-06-14 19:56:00,
2013-06-14 15:01:00,89.8,62.2,26.98,North,0,8.1,8.1,40,0.00,CLR,OVC,0.28,WeatherDisplay:10.37,2013-06-14 20:01:00,
2013-06-14 15:06:00,89.8,62.2,26.98,North,0,4.6,4.6,40,0.00,CLR,OVC,0.28,WeatherDisplay:10.37,2013-06-14 20:06:00,
2013-06-14 15:11:00,89.1,59.4,26.97,NW,315,8.1,8.1,37,0.00,CLR,OVC,0.28,WeatherDisplay:10.37,2013-06-14 20:11:00,
2013-06-14 15:16:00,89.1,59.4,26.97,NE,45,11.5,11.5,37,0.00,CLR,OVC,0.28,WeatherDisplay:10.37,2013-06-14 20:16:00,
2013-06-14 15:21:00,89.2,60.3,26.96,North,0,8.1,8.1,38,0.00,CLR,OVC,0.28,WeatherDisplay:10.37,2013-06-14 20:21:00,
2013-06-14 15:26:00,89.2,60.3,26.96,NW,315,8.1,8.1,38,0.00,CLR,OVC,0.28,WeatherDisplay:10.37,2013-06-14 20:26:00,
2013-06-14 15:31:00,89.4,59.7,26.96,NW,315,5.8,5.8,37,0.00,CLR,OVC,0.28,WeatherDisplay:10.37,2013-06-14 20:31:00,
2013-06-14 15:36:00,89.4,60.5,26.97,North,0,8.1,8.1,38,0.00,CLR,OVC,0.28,WeatherDisplay:10.37,2013-06-14 20:36:00,
2013-06-14 15:41:00,89.4,60.5,26.96,NW,315,10.4,10.4,38,0.00,CLR,OVC,0.28,WeatherDisplay:10.37,2013-06-14 20:41:00,
2013-06-14 15:46:00,89.4,58.2,26.97,NW,315,12.7,12.7,35,0.00,CLR,OVC,0.28,WeatherDisplay:10.37,2013-06-14 20:46:00,
2013-06-14 15:51:00,89.4,59.7,26.97,NNW,338,5.8,5.8,37,0.00,CLR,OVC,0.28,WeatherDisplay:10.37,2013-06-14 20:51:00,
2013-06-14 15:56:00,89.4,59.7,26.97,NE,45,9.2,9.2,37,0.00,CLR,OVC,0.28,WeatherDisplay:10.37,2013-06-14 20:56:00,
2013-06-14 16:01:00,89.4,60.5,26.97,NW,315,10.4,10.4,38,0.00,CLR,OVC,0.28,WeatherDisplay:10.37,2013-06-14 21:01:00,
2013-06-14 16:06:00,89.2,60.3,26.97,North,0,10.4,10.4,38,0.00,CLR,OVC,0.28,WeatherDisplay:10.37,2013-06-14 21:06:00,
2013-06-14 16:11:00,89.1,59.4,26.96,NNW,338,8.1,8.1,37,0.00,CLR,OVC,0.28,WeatherDisplay:10.37,2013-06-14 21:11:00,
2013-06-14 16:16:00,89.1,58.6,26.95,NW,315,15.0,15.0,36,0.00,CLR,OVC,0.28,WeatherDisplay:10.37,2013-06-14 21:16:00,
2013-06-14 16:21:00,88.9,59.2,26.95,NW,315,10.4,10.4,37,0.00,CLR,OVC,0.28,WeatherDisplay:10.37,2013-06-14 21:21:00,
2013-06-14 16:26:00,88.3,58.0,26.94,NW,315,8.1,8.1,36,0.00,CLR,OVC,0.28,WeatherDisplay:10.37,2013-06-14 21:26:00,
2013-06-14 16:31:00,88.9,59.2,26.94,NW,315,5.8,5.8,37,0.00,CLR,OVC,0.28,WeatherDisplay:10.37,2013-06-14 21:31:00,
2013-06-14 16:36:00,89.6,58.3,26.94,North,0,6.9,6.9,35,0.00,CLR,OVC,0.28,WeatherDisplay:10.37,2013-06-14 21:36:00,
2013-06-14 16:41:00,90.1,57.2,26.94,NNW,338,10.4,10.4,33,0.00,CLR,OVC,0.28,WeatherDisplay:10.37,2013-06-14 21:41:00,
2013-06-14 16:46:00,90.7,59.3,26.93,NW,315,3.5,3.5,35,0.00,CLR,OVC,0.28,WeatherDisplay:10.37,2013-06-14 21:46:00,
2013-06-14 16:51:00,90.9,58.6,26.92,NW,315,3.5,0.0,34,0.00,CLR,OVC,0.28,WeatherDisplay:10.37,2013-06-14 21:51:00,
2013-06-14 16:56:00,90.9,57.8,26.92,NW,315,4.6,4.6,33,0.00,CLR,OVC,0.28,WeatherDisplay:10.37,2013-06-14 21:56:00,
2013-06-14 17:01:00,91.2,58.1,26.93,North,0,6.9,6.9,33,0.00,CLR,OVC,0.28,WeatherDisplay:10.37,2013-06-14 22:01:00,
2013-06-14 17:06:00,91.2,58.1,26.93,North,0,6.9,6.9,33,0.00,CLR,OVC,0.28,WeatherDisplay:10.37,2013-06-14 22:06:00,
2013-06-14 17:11:00,91.4,62.2,26.94,NW,315,1.1,0.0,38,0.00,CLR,OVC,0.28,WeatherDisplay:10.37,2013-06-14 22:11:00,
2013-06-14 17:16:00,91.6,61.6,26.94,North,0,3.5,4.5,37,0.00,CLR,OVC,0.28,WeatherDisplay:10.37,2013-06-14 22:16:00,
2013-06-14 17:21:00,91.6,60.9,26.94,NW,315,5.8,5.8,36,0.00,CLR,OVC,0.28,WeatherDisplay:10.37,2013-06-14 22:21:00,
2013-06-14 17:26:00,91.6,60.9,26.94,NW,315,4.6,4.6,36,0.00,CLR,OVC,0.28,WeatherDisplay:10.37,2013-06-14 22:26:00,
2013-06-14 17:31:00,91.4,60.7,26.94,NW,315,8.1,8.1,36,0.00,CLR,OVC,0.28,WeatherDisplay:10.37,2013-06-14 22:31:00,
2013-06-14 17:36:00,91.2,58.1,26.94,North,0,4.6,4.6,33,0.00,CLR,OVC,0.28,WeatherDisplay:10.37,2013-06-14 22:36:00,
2013-06-14 17:41:00,91.0,60.4,26.95,North,0,3.5,3.5,36,0.00,CLR,OVC,0.28,WeatherDisplay:10.37,2013-06-14 22:41:00,
2013-06-14 17:46:00,90.7,58.5,26.95,NE,45,4.6,4.6,34,0.00,CLR,OVC,0.28,WeatherDisplay:10.37,2013-06-14 22:46:00,
2013-06-14 17:51:00,90.7,60.8,26.95,NNW,338,3.5,3.5,37,0.00,CLR,OVC,0.28,WeatherDisplay:10.37,2013-06-14 22:51:00,
2013-06-14 17:56:00,90.3,58.1,26.95,NNE,22,8.1,8.1,34,0.00,CLR,OVC,0.28,WeatherDisplay:10.37,2013-06-14 22:56:00,
2013-06-14 18:01:00,89.8,58.5,26.96,North,0,2.3,2.3,35,0.00,CLR,OVC,0.28,WeatherDisplay:10.37,2013-06-14 23:01:00,
2013-06-14 18:06:00,89.4,59.0,26.96,NW,315,1.1,1.1,36,0.00,CLR,OVC,0.28,WeatherDisplay:10.37,2013-06-14 23:06:00,
2013-06-14 18:11:00,89.2,60.3,26.97,East,90,3.5,3.5,38,0.00,CLR,OVC,0.28,WeatherDisplay:10.37,2013-06-14 23:11:00,
2013-06-14 18:16:00,89.1,60.9,26.96,SE,135,2.3,2.3,39,0.00,CLR,OVC,0.28,WeatherDisplay:10.37,2013-06-14 23:16:00,
2013-06-14 18:21:00,88.5,61.8,26.96,SW,225,1.1,0.0,41,0.00,CLR,OVC,0.28,WeatherDisplay:10.37,2013-06-14 23:21:00,
2013-06-14 18:26:00,88.3,61.7,26.96,East,90,1.1,0.0,41,0.00,CLR,OVC,0.28,WeatherDisplay:10.37,2013-06-14 23:26:00,
2013-06-14 18:31:00,88.0,60.6,26.97,NW,315,1.1,0.0,40,0.00,CLR,OVC,0.28,WeatherDisplay:10.37,2013-06-14 23:31:00,
2013-06-14 18:36:00,88.0,62.0,26.97,SE,135,1.1,0.0,42,0.00,CLR,OVC,0.28,WeatherDisplay:10.37,2013-06-14 23:36:00,
2013-06-14 18:41:00,88.0,62.7,26.97,South,180,1.1,0.0,43,0.00,CLR,OVC,0.28,WeatherDisplay:10.37,2013-06-14 23:41:00,
2013-06-14 18:46:00,87.8,63.2,26.98,South,180,3.5,3.5,44,0.00,CLR,OVC,0.28,WeatherDisplay:10.37,2013-06-14 23:46:00,
2013-06-14 18:51:00,87.4,63.5,26.98,South,180,4.6,4.6,45,0.00,CLR,OVC,0.28,WeatherDisplay:10.37,2013-06-14 23:51:00,
2013-06-14 18:56:00,87.1,63.2,26.97,South,180,3.5,3.5,45,0.00,CLR,OVC,0.28,WeatherDisplay:10.37,2013-06-14 23:56:00,
2013-06-14 19:01:00,86.7,62.8,26.98,South,180,2.3,2.3,45,0.00,CLR,OVC,0.28,WeatherDisplay:10.37,2013-06-15 00:01:00,
2013-06-14 19:06:00,86.7,62.8,26.98,South,180,2.3,2.3,45,0.00,CLR,OVC,0.28,WeatherDisplay:10.37,2013-06-15 00:06:00,
2013-06-14 19:11:00,86.5,63.9,26.98,South,180,0.0,0.0,47,0.00,CLR,OVC,0.28,WeatherDisplay:10.37,2013-06-15 00:11:00,
2013-06-14 19:16:00,86.5,63.3,26.97,West,270,0.0,0.0,46,0.00,CLR,OVC,0.28,WeatherDisplay:10.37,2013-06-15 00:16:00,
2013-06-14 19:21:00,86.5,64.5,26.97,South,180,2.3,2.3,48,0.00,CLR,OVC,0.28,WeatherDisplay:10.37,2013-06-15 00:21:00,
2013-06-14 19:26:00,86.2,64.8,26.98,South,180,3.5,3.5,49,0.00,CLR,OVC,0.28,WeatherDisplay:10.37,2013-06-15 00:26:00,
2013-06-14 19:31:00,85.8,63.9,26.98,South,180,5.8,5.8,48,0.00,CLR,OVC,0.28,WeatherDisplay:10.37,2013-06-15 00:31:00,
2013-06-14 19:36:00,85.1,63.2,26.98,South,180,2.3,2.3,48,0.00,CLR,OVC,0.28,WeatherDisplay:10.37,2013-06-15 00:36:00,
2013-06-14 19:42:00,84.9,63.6,26.98,SE,135,1.1,0.0,49,0.00,CLR,OVC,0.28,WeatherDisplay:10.37,2013-06-15 00:42:00,
2013-06-14 19:47:00,84.6,63.9,26.98,South,180,1.1,0.0,50,0.00,CLR,OVC,0.28,WeatherDisplay:10.37,2013-06-15 00:47:00,
2013-06-14 19:52:00,84.2,64.7,26.98,South,180,0.0,0.0,52,0.00,CLR,OVC,0.28,WeatherDisplay:10.37,2013-06-15 00:52:00,
2013-06-14 19:57:00,83.8,64.9,26.98,South,180,0.0,0.0,53,0.00,CLR,OVC,0.28,WeatherDisplay:10.37,2013-06-15 00:57:00,
2013-06-14 20:02:00,83.7,64.2,26.98,South,180,0.0,0.0,52,0.00,CLR,OVC,0.28,WeatherDisplay:10.37,2013-06-15 01:02:00,
2013-06-14 20:07:00,83.3,64.4,26.98,SE,135,1.1,0.0,53,0.00,CLR,OVC,0.28,WeatherDisplay:10.37,2013-06-15 01:07:00,
2013-06-14 20:12:00,82.8,63.9,26.97,North,0,1.1,0.0,53,0.00,CLR,OVC,0.28,WeatherDisplay:10.37,2013-06-15 01:12:00,
2013-06-14 20:17:00,82.8,63.9,26.97,NW,315,1.1,1.1,53,0.00,CLR,OVC,0.28,WeatherDisplay:10.37,2013-06-15 01:17:00,
2013-06-14 20:22:00,82.2,63.9,26.96,North,0,0.0,0.0,54,0.00,CLR,OVC,0.28,WeatherDisplay:10.37,2013-06-15 01:22:00,
2013-06-14 20:27:00,81.9,63.6,26.96,North,0,1.1,0.0,54,0.00,CLR,OVC,0.28,WeatherDisplay:10.37,2013-06-15 01:27:00,
2013-06-14 20:32:00,81.7,63.4,26.96,North,0,0.0,0.0,54,0.00,CLR,OVC,0.28,WeatherDisplay:10.37,2013-06-15 01:32:00,
2013-06-14 20:37:00,81.5,63.8,26.96,North,0,0.0,0.0,55,0.00,CLR,OVC,0.28,WeatherDisplay:10.37,2013-06-15 01:37:00,
2013-06-14 20:42:00,81.1,63.4,26.95,North,0,0.0,0.0,55,0.00,CLR,OVC,0.28,WeatherDisplay:10.37,2013-06-15 01:42:00,
2013-06-14 20:47:00,80.8,64.6,26.95,NW,315,0.0,0.0,58,0.00,CLR,OVC,0.28,WeatherDisplay:10.37,2013-06-15 01:47:00,
2013-06-14 20:52:00,80.4,65.3,26.95,NW,315,1.1,1.1,60,0.00,CLR,OVC,0.28,WeatherDisplay:10.37,2013-06-15 01:52:00,
2013-06-14 20:57:00,79.9,65.2,26.95,NW,315,1.1,0.0,61,0.00,CLR,OVC,0.28,WeatherDisplay:10.37,2013-06-15 01:57:00,
2013-06-14 21:02:00,79.7,65.1,26.95,North,0,1.1,1.1,61,0.00,CLR,OVC,0.28,WeatherDisplay:10.37,2013-06-15 02:02:00,
2013-06-14 21:07:00,79.7,65.1,26.95,North,0,1.1,1.1,61,0.00,CLR,OVC,0.28,WeatherDisplay:10.37,2013-06-15 02:07:00,
2013-06-14 21:12:00,79.0,64.8,26.95,NW,315,2.3,2.3,62,0.00,CLR,OVC,0.28,WeatherDisplay:10.37,2013-06-15 02:12:00,
2013-06-14 21:17:00,78.4,65.2,26.95,North,0,0.0,0.0,64,0.00,CLR,OVC,0.28,WeatherDisplay:10.37,2013-06-15 02:17:00,
2013-06-14 21:22:00,78.4,65.2,26.95,North,0,0.0,0.0,64,0.00,CLR,OVC,0.28,WeatherDisplay:10.37,2013-06-15 02:22:00,
2013-06-14 21:27:00,78.3,65.1,26.95,NW,315,0.0,0.0,64,0.00,CLR,OVC,0.28,WeatherDisplay:10.37,2013-06-15 02:27:00,
2013-06-14 21:32:00,78.1,64.5,26.96,NW,315,0.0,0.0,63,0.00,CLR,OVC,0.28,WeatherDisplay:10.37,2013-06-15 02:32:00,
2013-06-14 21:37:00,78.1,64.5,26.96,NW,315,0.0,0.0,63,0.00,CLR,OVC,0.28,WeatherDisplay:10.37,2013-06-15 02:37:00,
2013-06-14 21:42:00,78.1,64.5,26.97,NW,315,0.0,0.0,63,0.00,CLR,OVC,0.28,WeatherDisplay:10.37,2013-06-15 02:42:00,
2013-06-14 21:47:00,78.1,64.5,26.97,NW,315,0.0,0.0,63,0.00,CLR,OVC,0.28,WeatherDisplay:10.37,2013-06-15 02:47:00,
2013-06-14 21:52:00,77.7,65.0,26.98,SE,135,0.0,1.6,65,0.00,CLR,OVC,0.28,WeatherDisplay:10.37,2013-06-15 02:52:00,
2013-06-14 21:57:00,77.4,64.7,26.98,South,180,1.1,1.1,65,0.00,CLR,OVC,0.28,WeatherDisplay:10.37,2013-06-15 02:57:00,
2013-06-14 22:02:00,77.0,64.8,26.98,South,180,2.3,3.1,66,0.00,CLR,OVC,0.28,WeatherDisplay:10.37,2013-06-15 03:02:00,
2013-06-14 22:07:00,76.8,65.5,27.00,SE,135,3.5,3.5,68,0.00,CLR,OVC,0.28,WeatherDisplay:10.37,2013-06-15 03:07:00,
2013-06-14 22:12:00,76.1,65.6,27.01,South,180,5.8,5.8,70,0.00,CLR,OVC,0.28,WeatherDisplay:10.37,2013-06-15 03:12:00,
2013-06-14 22:17:00,75.7,64.8,27.01,SE,135,6.0,6.0,69,0.00,CLR,OVC,0.28,WeatherDisplay:10.37,2013-06-15 03:17:00,
2013-06-14 22:22:00,75.6,64.7,27.01,South,180,5.8,5.8,69,0.00,CLR,OVC,0.28,WeatherDisplay:10.37,2013-06-15 03:22:00,
2013-06-14 22:27:00,75.7,63.1,27.01,South,180,4.6,4.6,65,0.00,CLR,OVC,0.28,WeatherDisplay:10.37,2013-06-15 03:27:00,
2013-06-14 22:32:00,75.9,59.1,27.01,South,180,8.1,8.1,56,0.00,CLR,OVC,0.28,WeatherDisplay:10.37,2013-06-15 03:32:00,
2013-06-14 22:37:00,76.8,55.6,27.01,South,180,8.1,8.1,48,0.00,CLR,OVC,0.28,WeatherDisplay:10.37,2013-06-15 03:37:00,
2013-06-14 22:42:00,77.4,54.4,27.01,South,180,5.8,5.8,45,0.00,CLR,OVC,0.28,WeatherDisplay:10.37,2013-06-15 03:42:00,
2013-06-14 22:47:00,78.4,54.7,27.02,South,180,6.9,6.9,44,0.00,CLR,OVC,0.28,WeatherDisplay:10.37,2013-06-15 03:47:00,
2013-06-14 22:52:00,79.0,54.6,27.01,South,180,8.1,8.1,43,0.00,CLR,OVC,0.28,WeatherDisplay:10.37,2013-06-15 03:52:00,
2013-06-14 22:57:00,79.0,53.9,27.02,South,180,5.8,5.8,42,0.00,CLR,OVC,0.28,WeatherDisplay:10.37,2013-06-15 03:57:00,
2013-06-14 23:01:00,79.0,53.9,27.03,SW,225,9.2,9.2,42,0.00,CLR,OVC,0.28,WeatherDisplay:10.37,2013-06-15 04:01:00,
2013-06-14 23:06:00,79.0,53.9,27.03,SW,225,9.2,9.2,42,0.00,CLR,OVC,0.28,WeatherDisplay:10.37,2013-06-15 04:06:00,
2013-06-14 23:11:00,79.0,53.9,27.02,South,180,3.5,3.5,42,0.00,CLR,OVC,0.28,WeatherDisplay:10.37,2013-06-15 04:11:00,
2013-06-14 23:16:00,78.8,53.8,27.02,South,180,3.5,3.5,42,0.00,CLR,OVC,0.28,WeatherDisplay:10.37,2013-06-15 04:16:00,
2013-06-14 23:21:00,78.4,54.1,27.02,SW,225,5.8,5.8,43,0.00,CLR,OVC,0.28,WeatherDisplay:10.37,2013-06-15 04:21:00,
2013-06-14 23:26:00,78.4,54.1,27.00,SW,225,3.5,3.5,43,0.00,CLR,OVC,0.28,WeatherDisplay:10.37,2013-06-15 04:26:00,
2013-06-14 23:31:00,78.4,54.1,27.00,West,270,1.1,0.0,43,0.00,CLR,OVC,0.28,WeatherDisplay:10.37,2013-06-15 04:31:00,
2013-06-14 23:36:00,78.1,53.8,26.99,NW,315,0.0,0.0,43,0.00,CLR,OVC,0.28,WeatherDisplay:10.37,2013-06-15 04:36:00,
2013-06-14 23:41:00,78.1,54.4,26.99,North,0,0.0,0.0,44,0.00,CLR,OVC,0.28,WeatherDisplay:10.37,2013-06-15 04:41:00,
2013-06-14 23:46:00,78.1,54.4,26.99,West,270,0.0,0.0,44,0.00,CLR,OVC,0.28,WeatherDisplay:10.37,2013-06-15 04:46:00,
2013-06-14 23:51:00,77.7,54.1,26.99,NW,315,0.0,0.0,44,0.00,CLR,OVC,0.28,WeatherDisplay:10.37,2013-06-15 04:51:00,
2013-06-14 23:56:00,77.7,54.1,26.99,NW,315,1.1,0.0,44,0.00,CLR,OVC,0.28,WeatherDisplay:10.37,2013-06-15 04:56:00,